Hovedside
METAR-TAF:

METAR-TAF

Lufthavner :

Kärdla, Estland

Kärdla lufthavn

breddegrad: 58-59N, lengdegrad: 022-49E, høyde over havet: 5 m

Gjeldene værobservasjon

Denne rapporten ble laget for 1 time og 16 minutter siden, klokken 09:50 UTC
Vind 9 kt fra Sør-sørvest
Temperatur 9°C
Luftfuktighet 53%
Trykk 1009 hPa
Sikt 10 km eller mer
Spredte skyer i en høyde av 2700 ft

METAR: EEKA 270950Z 21009KT 9999 SCT027 09/M00 Q1009

Tid: 14:06 (11:06 UTC)

Varsel

Denne rapporten ble laget for 8 timer og 6 minutter siden, klokken 03:00 UTC
Varsel gyldig fra 27. klokken 04 UTC til 27. klokken 10 UTC
Vind 10 kt fra Sørvest
Sikt 10 km eller mer
Spredte skyer i en høyde av 1200 ft
Spredte skyer i en høyde av 2000 ft, Bygeskyer.
Midlertidig
fra 27. klokken 04 UTC til 27. klokken 06 UTC
Sikt: 3000 m
Brutte skyer i en høyde av 400 ft
dis

TAF: EEKA 270300Z 2704/2710 23010KT 9999 SCT012 SCT020CB TEMPO 2704/2706 3000 BR BKN004

Værobservasjoner og værvarsel for over 4000 flyplasser (METAR- og TAF-rapporter).

Tilgjengelige stasjoner er representert av de røde og gule prikkene på kartet.

Hold musepekeren over prikken for å se navnet på stasjonen.

Klikk så for å se værobservasjoner og -varsler.

For å forandre kartet kan du klikke på den grønne knappen med svart kryss for å zoome inn, på den grønne knappen med strek for å zoome ut, eller på de grønne pilene for å se tilstøtende kart.


METAR-TAF: